Time;durP1;ratioP1;P1;durP2;ratioP2;P2;SDS_P1;SDS_P2;PMS_P1;PMS_P2;Temp;Humidity;BMP_temperature;BMP_pressure;BME280_temperature;BME280_humidity;BME280_pressure;Samples;Min_cycle;Max_cycle;Signal;HPM_P1;HPM_P2
2021/01/08 00:03:56;;;;;;;9.07;6.37;;;;;;;0.40;89.52;96414.91;5091769;28;20591;-71
2021/01/08 00:06:22;;;;;;;9.03;6.83;;;;;;;0.37;89.90;96413.47;5093801;28;20207;-71
2021/01/08 00:08:47;;;;;;;7.30;5.70;;;;;;;0.39;89.90;96421.06;5094719;28;20222;-71
2021/01/08 00:11:19;;;;;;;9.47;6.20;;;;;;;0.50;90.38;96414.69;5094394;28;20185;-71
2021/01/08 00:13:46;;;;;;;7.60;6.17;;;;;;;0.58;89.16;96412.03;5092826;28;20200;-71
2021/01/08 00:16:18;;;;;;;7.93;6.27;;;;;;;0.56;89.13;96414.78;5094260;28;20639;-71
2021/01/08 00:18:45;;;;;;;10.20;6.30;;;;;;;0.54;89.31;96409.00;5094578;28;20176;-71
2021/01/08 00:21:11;;;;;;;7.63;6.17;;;;;;;0.59;88.94;96409.28;5094177;28;20398;-71
2021/01/08 00:23:36;;;;;;;9.23;6.57;;;;;;;0.71;88.21;96413.06;5093081;28;20261;-71
2021/01/08 00:26:02;;;;;;;8.60;6.60;;;;;;;0.62;88.35;96408.91;5092361;28;20200;-72
2021/01/08 00:28:27;;;;;;;8.40;6.47;;;;;;;0.57;89.06;96411.22;5094055;28;20192;-71
2021/01/08 00:30:53;;;;;;;8.67;6.37;;;;;;;0.69;89.12;96409.84;5094161;28;20175;-71
2021/01/08 00:33:18;;;;;;;10.03;6.60;;;;;;;0.69;89.02;96409.03;5093724;28;20203;-71
2021/01/08 00:35:44;;;;;;;7.23;5.60;;;;;;;0.62;89.54;96411.50;5093043;28;20179;-71
2021/01/08 00:38:10;;;;;;;9.43;6.90;;;;;;;0.62;89.15;96416.66;5093696;28;20177;-71
2021/01/08 00:40:36;;;;;;;9.47;6.63;;;;;;;0.78;88.71;96418.31;5092681;28;20229;-71
2021/01/08 00:43:01;;;;;;;9.47;6.57;;;;;;;0.75;88.26;96419.47;5093085;28;20184;-71
2021/01/08 00:45:28;;;;;;;8.73;6.73;;;;;;;0.76;87.80;96418.50;5092551;28;20275;-71
2021/01/08 00:47:53;;;;;;;8.90;6.33;;;;;;;0.81;88.25;96407.66;5093902;28;20173;-71
2021/01/08 00:50:19;;;;;;;8.50;6.43;;;;;;;0.84;87.89;96410.66;5094481;28;20558;-71
2021/01/08 00:52:44;;;;;;;7.93;6.37;;;;;;;0.87;86.62;96406.16;5093108;28;20181;-71
2021/01/08 00:55:10;;;;;;;8.07;5.90;;;;;;;0.84;86.59;96412.44;5092983;28;20204;-71
2021/01/08 00:57:36;;;;;;;7.77;6.00;;;;;;;0.76;87.32;96418.50;5092354;28;20203;-71
2021/01/08 01:00:04;;;;;;;8.93;6.27;;;;;;;0.71;87.64;96420.78;5093835;28;20188;-71
2021/01/08 01:02:31;;;;;;;7.20;6.03;;;;;;;0.71;87.06;96420.78;5100138;27;20245;-70
2021/01/08 01:04:57;;;;;;;9.20;5.97;;;;;;;0.76;86.82;96417.69;5127546;27;20633;-70
2021/01/08 01:07:22;;;;;;;7.03;5.70;;;;;;;0.64;86.90;96419.88;5126190;27;20214;-70
2021/01/08 01:09:48;;;;;;;8.80;6.43;;;;;;;0.59;87.32;96424.75;5128557;27;20540;-70
2021/01/08 01:12:20;;;;;;;9.43;6.77;;;;;;;0.59;88.12;96421.38;5095752;28;20590;-70
2021/01/08 01:14:45;;;;;;;7.43;5.97;;;;;;;0.74;87.91;96433.31;5095380;28;20196;-71
2021/01/08 01:17:11;;;;;;;9.20;6.27;;;;;;;0.71;88.38;96427.72;5125363;27;20544;-71
2021/01/08 01:19:37;;;;;;;7.57;6.23;;;;;;;0.74;87.73;96433.31;5116939;27;20952;-71
2021/01/08 01:22:03;;;;;;;8.30;6.20;;;;;;;0.75;88.17;96429.78;5127844;27;20179;-71
2021/01/08 01:24:28;;;;;;;8.00;6.47;;;;;;;0.70;88.17;96433.84;5097348;27;20235;-71
2021/01/08 01:26:58;;;;;;;10.97;6.80;;;;;;;0.81;88.21;96431.66;5129801;27;20176;-71
2021/01/08 01:29:23;;;;;;;7.73;6.33;;;;;;;0.68;88.73;96434.03;5114538;27;20183;-71
2021/01/08 01:31:49;;;;;;;7.67;5.73;;;;;;;0.80;87.47;96429.25;5128896;27;20175;-72
2021/01/08 01:34:14;;;;;;;7.60;5.60;;;;;;;0.70;87.56;96428.69;5121352;27;20210;-72
2021/01/08 01:36:40;;;;;;;7.90;5.73;;;;;;;0.78;86.85;96431.22;5132657;27;20172;-71
2021/01/08 01:39:06;;;;;;;8.07;5.70;;;;;;;0.82;86.70;96433.28;5119946;27;20176;-71
2021/01/08 01:41:31;;;;;;;7.23;5.30;;;;;;;0.78;86.87;96438.97;5129183;27;20177;-71
2021/01/08 01:43:58;;;;;;;6.70;5.13;;;;;;;0.71;86.15;96435.47;5118958;27;20203;-71
2021/01/08 01:46:25;;;;;;;8.53;5.17;;;;;;;0.66;85.69;96435.19;5124694;27;20645;-71
2021/01/08 01:48:52;;;;;;;6.07;5.07;;;;;;;0.56;86.13;96439.78;5095023;28;20569;-71
2021/01/08 01:51:20;;;;;;;7.40;4.90;;;;;;;0.41;85.87;96439.69;5129013;27;20243;-71
2021/01/08 01:53:48;;;;;;;6.30;5.20;;;;;;;0.30;86.62;96438.31;5129447;27;20214;-71
2021/01/08 01:56:14;;;;;;;5.67;5.03;;;;;;;0.21;86.55;96441.13;5119904;27;20182;-71
2021/01/08 01:58:40;;;;;;;6.67;5.03;;;;;;;0.23;86.87;96447.72;5122275;27;20255;-71
2021/01/08 02:01:05;;;;;;;5.33;4.53;;;;;;;0.20;86.56;96442.91;5095334;28;20194;-70
2021/01/08 02:03:37;;;;;;;6.07;4.60;;;;;;;0.23;85.88;96447.72;5110389;27;20247;-72
2021/01/08 02:06:09;;;;;;;5.63;5.00;;;;;;;0.25;86.38;96447.53;5118394;28;20210;-72
2021/01/08 02:08:37;;;;;;;6.33;4.83;;;;;;;0.10;86.41;96446.69;5126938;27;20530;-72
2021/01/08 02:11:08;;;;;;;5.83;4.80;;;;;;;0.04;85.73;96442.19;5119481;27;20258;-72
2021/01/08 02:13:46;;;;;;;6.30;4.60;;;;;;;0.02;86.40;96444.13;5125936;27;20207;-72
2021/01/08 02:16:14;;;;;;;7.53;4.73;;;;;;;0.04;86.24;96443.00;5117074;27;20227;-72
2021/01/08 02:18:42;;;;;;;8.00;5.33;;;;;;;0.04;86.45;96443.00;5122457;27;20164;-72
2021/01/08 02:21:13;;;;;;;9.07;4.83;;;;;;;0.04;86.95;96439.63;5114174;28;20526;-72
2021/01/08 02:23:45;;;;;;;6.57;5.10;;;;;;;0.12;87.43;96440.38;5127969;28;20206;-72
2021/01/08 02:26:12;;;;;;;6.80;5.33;;;;;;;0.23;87.03;96439.97;5078433;28;20195;-72
2021/01/08 02:28:38;;;;;;;6.47;5.23;;;;;;;0.24;87.74;96443.34;5113662;28;20798;-72
2021/01/08 02:31:04;;;;;;;7.63;5.67;;;;;;;0.34;87.25;96449.09;5118973;28;20193;-72
2021/01/08 02:33:31;;;;;;;5.87;5.20;;;;;;;0.39;87.40;96445.03;5120768;28;20200;-71
2021/01/08 02:36:00;;;;;;;6.37;5.47;;;;;;;0.33;87.73;96445.72;5126201;28;20580;-72
2021/01/08 02:38:26;;;;;;;8.57;5.90;;;;;;;0.41;87.16;96440.50;5122147;28;20187;-72
2021/01/08 02:40:52;;;;;;;9.43;6.37;;;;;;;0.39;87.40;96439.88;5118967;27;20163;-72
2021/01/08 02:43:26;;;;;;;10.57;7.03;;;;;;;0.44;87.84;96441.94;5125774;27;20187;-72
2021/01/08 02:45:52;;;;;;;8.77;6.33;;;;;;;0.48;88.05;96438.06;5130793;27;20260;-72
2021/01/08 02:48:21;;;;;;;10.70;7.47;;;;;;;0.50;88.32;96430.97;5133147;27;20179;-72
2021/01/08 02:50:46;;;;;;;9.80;6.77;;;;;;;0.47;88.78;96439.03;5129973;27;20182;-72
2021/01/08 02:53:15;;;;;;;10.57;7.40;;;;;;;0.55;88.27;96438.97;5127392;27;20187;-72
2021/01/08 02:56:19;;;;;;;11.63;8.20;;;;;;;0.60;88.20;96436.69;5119074;27;20907;-72
2021/01/08 02:58:46;;;;;;;10.53;7.70;;;;;;;0.52;88.55;96438.50;5103435;27;20248;-72
2021/01/08 03:01:12;;;;;;;11.13;7.70;;;;;;;0.54;88.55;96439.94;5123878;27;20179;-72
2021/01/08 03:03:38;;;;;;;10.27;8.03;;;;;;;0.59;88.71;96437.66;5108864;27;20859;-72
2021/01/08 03:06:05;;;;;;;11.80;8.27;;;;;;;0.54;88.54;96439.13;5100215;28;20201;-72
2021/01/08 03:08:31;;;;;;;11.70;8.97;;;;;;;0.56;89.07;96440.56;5112844;28;20176;-72
2021/01/08 03:11:00;;;;;;;10.43;7.93;;;;;;;0.54;88.92;96433.97;5110420;28;20165;-72
2021/01/08 03:13:30;;;;;;;11.40;8.13;;;;;;;0.48;89.68;96432.09;5103800;28;20199;-72
2021/01/08 03:15:55;;;;;;;12.00;8.40;;;;;;;0.58;88.76;96422.34;5101599;28;20181;-72
2021/01/08 03:18:20;;;;;;;13.50;8.23;;;;;;;0.50;89.67;96425.00;5095220;28;20226;-72
2021/01/08 03:20:46;;;;;;;13.13;8.63;;;;;;;0.52;89.67;96429.00;5089593;28;20578;-73
2021/01/08 03:23:11;;;;;;;12.87;8.13;;;;;;;0.43;90.09;96430.03;5108106;28;20591;-70
2021/01/08 03:25:37;;;;;;;12.37;7.90;;;;;;;0.27;90.76;96428.38;5105639;28;20210;-73
2021/01/08 03:28:03;;;;;;;12.97;8.70;;;;;;;0.24;90.93;96422.75;5100812;28;20195;-73
2021/01/08 03:30:28;;;;;;;10.77;8.00;;;;;;;0.27;91.08;96419.84;5110811;28;20168;-73
2021/01/08 03:32:53;;;;;;;10.80;7.60;;;;;;;0.30;90.60;96415.13;5112020;28;20184;-73
2021/01/08 03:35:25;;;;;;;10.80;7.60;;;;;;;0.35;91.11;96412.03;5102754;28;20227;-73
2021/01/08 03:37:51;;;;;;;11.73;8.00;;;;;;;0.25;90.83;96417.44;5103688;28;20169;-71
2021/01/08 03:40:16;;;;;;;12.53;8.20;;;;;;;0.23;90.61;96415.97;5090994;28;20186;-70
2021/01/08 03:42:42;;;;;;;10.37;7.67;;;;;;;0.23;90.58;96415.97;5105338;28;20226;-70
2021/01/08 03:45:08;;;;;;;13.13;7.20;;;;;;;0.19;90.48;96414.72;5102652;28;20211;-70
2021/01/08 03:47:33;;;;;;;9.50;7.23;;;;;;;0.22;90.33;96417.78;5108904;28;20172;-71
2021/01/08 03:49:59;;;;;;;12.67;8.07;;;;;;;0.29;90.03;96413.53;5099624;28;20552;-70
2021/01/08 03:52:24;;;;;;;9.70;7.50;;;;;;;0.21;90.38;96415.38;5105209;28;20179;-71
2021/01/08 03:54:50;;;;;;;10.23;7.10;;;;;;;0.17;90.44;96409.72;5104498;28;20242;-71
2021/01/08 03:57:15;;;;;;;11.30;7.57;;;;;;;0.25;89.96;96414.84;5100159;28;20165;-71
2021/01/08 03:59:41;;;;;;;11.13;7.57;;;;;;;0.18;90.05;96406.19;5103311;28;20187;-71
2021/01/08 04:02:06;;;;;;;9.03;6.73;;;;;;;0.21;90.14;96415.38;5106765;28;20288;-71
2021/01/08 04:04:32;;;;;;;10.07;6.93;;;;;;;0.20;89.92;96414.56;5118966;27;20203;-71
2021/01/08 04:06:57;;;;;;;10.57;7.53;;;;;;;0.16;90.36;96413.31;5123299;27;20528;-71
2021/01/08 04:09:23;;;;;;;10.50;7.17;;;;;;;0.10;90.09;96426.06;5123089;27;20717;-70
2021/01/08 04:11:48;;;;;;;10.50;7.37;;;;;;;0.03;90.55;96415.63;5124554;27;20179;-71
2021/01/08 04:14:14;;;;;;;13.83;7.50;;;;;;;0.08;90.53;96415.13;5128505;27;20677;-71
2021/01/08 04:16:41;;;;;;;11.03;6.40;;;;;;;0.07;90.23;96416.88;5124872;27;20916;-71
2021/01/08 04:19:11;;;;;;;10.60;7.50;;;;;;;0.04;90.18;96412.09;5122723;27;20183;-71
2021/01/08 04:21:37;;;;;;;11.50;7.70;;;;;;;0.18;89.45;96410.53;5122042;27;20501;-71
2021/01/08 04:24:03;;;;;;;12.77;7.17;;;;;;;0.14;89.92;96415.25;5130541;27;20202;-71
2021/01/08 04:26:29;;;;;;;9.87;7.20;;;;;;;0.07;89.81;96413.50;5121601;27;20711;-71
2021/01/08 04:28:54;;;;;;;8.57;6.87;;;;;;;0.03;90.03;96412.25;5120350;27;20172;-71
2021/01/08 04:31:20;;;;;;;11.57;7.27;;;;;;;0.11;90.23;96414.78;5126217;27;20180;-70
2021/01/08 04:33:46;;;;;;;9.70;7.30;;;;;;;-0.06;90.77;96409.72;5121239;27;20249;-71
2021/01/08 04:36:12;;;;;;;10.03;7.33;;;;;;;0.03;90.50;96407.91;5122295;27;20191;-71
2021/01/08 04:38:38;;;;;;;11.53;7.30;;;;;;;0.08;90.25;96403.03;5121427;27;20290;-71
2021/01/08 04:41:07;;;;;;;10.03;7.47;;;;;;;0.13;90.19;96405.91;5121855;27;20176;-70
2021/01/08 04:43:34;;;;;;;11.53;6.70;;;;;;;0.06;90.22;96404.19;5118240;27;20203;-70
2021/01/08 04:46:05;;;;;;;8.80;6.50;;;;;;;-0.03;90.79;96401.66;5125226;27;20225;-71
2021/01/08 04:48:33;;;;;;;10.17;7.10;;;;;;;0.00;90.41;96400.53;5113794;27;20164;-71
2021/01/08 04:51:03;;;;;;;9.23;6.67;;;;;;;0.11;90.40;96407.06;5129812;27;20171;-70
2021/01/08 04:53:30;;;;;;;9.80;6.97;;;;;;;0.16;89.99;96402.19;5113429;27;20638;-72
2021/01/08 04:55:59;;;;;;;8.77;7.03;;;;;;;0.18;89.85;96406.19;5129369;27;20179;-70
2021/01/08 04:58:28;;;;;;;9.77;7.37;;;;;;;0.18;89.34;96401.03;5121644;27;20188;-71
2021/01/08 05:00:54;;;;;;;8.40;6.57;;;;;;;0.17;89.34;96401.22;5113961;27;20195;-71
2021/01/08 05:03:19;;;;;;;9.53;6.90;;;;;;;0.24;88.71;96400.34;5120858;27;20911;-71
2021/01/08 05:05:44;;;;;;;9.10;6.60;;;;;;;0.18;89.23;96400.22;5144532;27;20190;-70
2021/01/08 05:08:10;;;;;;;9.47;6.90;;;;;;;0.14;89.26;96404.94;5145585;27;20594;-71
2021/01/08 05:10:36;;;;;;;8.60;6.67;;;;;;;0.23;88.86;96401.31;5139234;27;20221;-71
2021/01/08 05:13:02;;;;;;;8.33;6.27;;;;;;;0.20;88.58;96404.25;5150482;27;20587;-71
2021/01/08 05:15:27;;;;;;;8.80;6.47;;;;;;;0.23;88.35;96403.91;5148160;27;20220;-71
2021/01/08 05:17:53;;;;;;;8.63;6.30;;;;;;;0.13;88.54;96398.19;5143036;27;20181;-70
2021/01/08 05:20:19;;;;;;;9.43;6.67;;;;;;;0.17;88.58;96398.66;5134018;27;20172;-70
2021/01/08 05:22:45;;;;;;;7.67;6.07;;;;;;;0.16;88.59;96392.69;5140817;27;20746;-71
2021/01/08 05:25:11;;;;;;;7.70;5.97;;;;;;;0.05;88.69;96389.72;5141698;27;20215;-71
2021/01/08 05:27:37;;;;;;;8.77;6.40;;;;;;;0.04;89.13;96393.25;5149510;27;20174;-70
2021/01/08 05:30:21;;;;;;;7.33;5.60;;;;;;;0.02;89.12;96393.41;5138935;27;20170;-70
2021/01/08 05:32:56;;;;;;;7.70;5.67;;;;;;;-0.13;89.44;96390.78;5141561;27;20179;-70
2021/01/08 05:35:23;;;;;;;8.63;5.83;;;;;;;0.06;88.99;96393.91;5146756;27;20193;-70
2021/01/08 05:37:51;;;;;;;11.87;6.53;;;;;;;0.05;89.23;96394.88;5137622;27;20258;-70
2021/01/08 05:40:27;;;;;;;10.47;5.80;;;;;;;0.05;89.01;96403.41;5139586;27;20183;-70
2021/01/08 05:42:57;;;;;;;9.63;6.30;;;;;;;0.05;88.86;96400.81;5142649;27;20181;-70
2021/01/08 05:45:24;;;;;;;9.30;6.23;;;;;;;0.04;89.42;96403.56;5139710;27;20199;-70
2021/01/08 05:47:51;;;;;;;7.60;5.83;;;;;;;0.17;89.42;96408.97;5140666;27;20226;-70
2021/01/08 05:50:20;;;;;;;9.33;6.37;;;;;;;0.13;89.42;96410.25;5147658;27;20187;-70
2021/01/08 05:52:49;;;;;;;7.70;5.80;;;;;;;0.19;89.51;96409.56;5135139;27;20265;-70
2021/01/08 05:55:14;;;;;;;7.37;5.40;;;;;;;0.07;89.30;96404.00;5144274;27;20226;-70
2021/01/08 05:57:41;;;;;;;7.37;5.77;;;;;;;0.13;89.31;96413.63;5143014;27;20189;-70
2021/01/08 06:00:08;;;;;;;7.57;6.00;;;;;;;0.06;89.42;96412.69;5146159;27;20189;-70
2021/01/08 06:02:35;;;;;;;8.50;6.00;;;;;;;0.04;89.85;96419.00;5114589;27;20297;-70
2021/01/08 06:05:00;;;;;;;6.33;5.30;;;;;;;0.06;89.49;96415.28;5089514;28;20213;-70
2021/01/08 06:07:29;;;;;;;7.97;5.87;;;;;;;0.11;89.35;96413.03;5090961;28;20658;-70
2021/01/08 06:10:03;;;;;;;6.60;5.37;;;;;;;0.19;89.19;96422.47;5091296;28;20259;-71
2021/01/08 06:12:36;;;;;;;8.97;6.10;;;;;;;0.11;89.17;96419.94;5090682;28;20173;-70
2021/01/08 06:15:01;;;;;;;7.47;5.80;;;;;;;0.20;89.06;96413.75;5089415;28;20208;-70
2021/01/08 06:17:30;;;;;;;8.33;5.77;;;;;;;0.21;88.97;96417.94;5088631;28;20256;-70
2021/01/08 06:20:02;;;;;;;6.80;5.50;;;;;;;0.19;88.65;96417.31;5090396;28;20747;-70
2021/01/08 06:22:38;;;;;;;7.87;5.63;;;;;;;-0.20;90.41;96417.38;5088563;28;20208;-66
2021/01/08 06:25:07;;;;;;;8.97;6.10;;;;;;;-0.42;92.05;96419.72;5087750;28;20202;-65
2021/01/08 06:27:34;;;;;;;10.03;6.30;;;;;;;-0.35;91.68;96413.91;5089259;28;20592;-64
2021/01/08 06:30:04;;;;;;;8.53;6.07;;;;;;;-0.22;91.31;96417.53;5089975;28;20187;-61
2021/01/08 06:32:32;;;;;;;6.90;5.37;;;;;;;-0.06;89.96;96419.22;5089841;28;20189;-64
2021/01/08 06:35:02;;;;;;;6.33;5.30;;;;;;;0.08;89.44;96420.28;5090273;28;20670;-63
2021/01/08 06:37:37;;;;;;;8.00;6.40;;;;;;;0.16;89.01;96415.88;5090755;28;20194;-60
2021/01/08 06:40:03;;;;;;;7.50;5.57;;;;;;;0.17;89.04;96417.47;5090570;28;20176;-63
2021/01/08 06:42:30;;;;;;;7.40;5.20;;;;;;;0.28;88.69;96413.72;5090057;28;20248;-61
2021/01/08 06:44:56;;;;;;;6.37;5.23;;;;;;;0.33;88.07;96414.00;5091051;28;20291;-63
2021/01/08 06:47:22;;;;;;;7.37;5.40;;;;;;;0.24;88.15;96423.53;5090978;28;20187;-62
2021/01/08 06:49:52;;;;;;;6.77;5.30;;;;;;;0.34;88.44;96425.88;5089905;28;20185;-62
2021/01/08 06:52:17;;;;;;;7.00;5.27;;;;;;;0.29;87.84;96430.75;5089880;28;20180;-62
2021/01/08 06:54:43;;;;;;;7.23;5.27;;;;;;;0.29;88.00;96431.56;5089842;28;20204;-62
2021/01/08 06:57:19;;;;;;;6.57;5.23;;;;;;;0.39;87.96;96436.50;5089499;28;20177;-62
2021/01/08 07:00:05;;;;;;;6.07;5.00;;;;;;;0.39;87.71;96428.78;5088569;28;20176;-61
2021/01/08 07:02:32;;;;;;;5.87;5.17;;;;;;;0.41;87.93;96437.13;5087138;28;20216;-58
2021/01/08 07:04:58;;;;;;;7.27;5.03;;;;;;;0.44;87.74;96431.66;5089787;28;20266;-60
2021/01/08 07:07:28;;;;;;;6.80;4.40;;;;;;;0.38;87.61;96443.44;5090734;28;20177;-56
2021/01/08 07:09:57;;;;;;;5.60;4.67;;;;;;;0.45;87.70;96437.59;5089528;28;20275;-60
2021/01/08 07:12:24;;;;;;;7.43;4.63;;;;;;;0.44;87.25;96441.94;5087769;28;20169;-59
2021/01/08 07:14:50;;;;;;;8.27;4.73;;;;;;;0.34;87.80;96444.75;5087575;28;20995;-57
2021/01/08 07:17:16;;;;;;;9.83;5.37;;;;;;;0.39;87.23;96442.44;5090440;28;20219;-61
2021/01/08 07:19:43;;;;;;;8.17;5.27;;;;;;;0.38;88.08;96447.78;5089302;28;20169;-64
2021/01/08 07:22:17;;;;;;;6.70;5.30;;;;;;;0.44;88.15;96451.47;5090351;28;20172;-60
2021/01/08 07:24:43;;;;;;;6.77;5.70;;;;;;;0.42;88.16;96454.19;5089818;28;20208;-62
2021/01/08 07:27:22;;;;;;;8.57;5.03;;;;;;;0.53;87.25;96446.06;5091248;28;20225;-63
2021/01/08 07:30:02;;;;;;;7.07;4.83;;;;;;;0.60;87.23;96443.59;5083507;28;20222;-62
2021/01/08 07:32:35;;;;;;;11.20;5.70;;;;;;;0.60;86.53;96457.31;5093835;28;20184;-63
2021/01/08 07:35:32;;;;;;;6.17;4.80;;;;;;;0.56;86.90;96455.25;5094388;28;20662;-62
2021/01/08 07:38:07;;;;;;;7.27;5.40;;;;;;;0.60;87.37;96454.72;5080234;28;20322;-61
2021/01/08 07:40:34;;;;;;;10.37;4.63;;;;;;;0.68;86.24;96457.22;5093370;28;20574;-62
2021/01/08 07:43:12;;;;;;;5.70;5.00;;;;;;;0.70;86.28;96460.44;5093892;28;20185;-62
2021/01/08 07:45:51;;;;;;;9.03;5.20;;;;;;;0.70;87.13;96459.63;5093164;28;20258;-61
2021/01/08 07:48:28;;;;;;;8.03;5.43;;;;;;;0.75;86.16;96463.31;5092555;28;20184;-65
2021/01/08 07:50:59;;;;;;;6.17;5.03;;;;;;;0.74;86.28;96466.84;5093439;28;20233;-67
2021/01/08 07:53:44;;;;;;;6.13;4.73;;;;;;;0.78;86.20;96465.53;5092373;28;20184;-67
2021/01/08 07:56:16;;;;;;;7.80;4.53;;;;;;;0.80;85.48;96463.59;5093769;28;20184;-67
2021/01/08 07:59:09;;;;;;;5.90;4.57;;;;;;;0.83;86.05;96467.59;5092727;28;20209;-67
2021/01/08 08:01:36;;;;;;;8.97;4.70;;;;;;;0.96;84.90;96472.97;5083340;28;20220;-68
2021/01/08 08:04:10;;;;;;;6.40;4.93;;;;;;;0.93;84.68;96473.31;5092176;28;20220;-67
2021/01/08 08:06:39;;;;;;;5.63;4.80;;;;;;;0.99;84.99;96470.06;5092727;28;20192;-66
2021/01/08 08:09:07;;;;;;;6.00;4.70;;;;;;;0.96;84.11;96470.38;5092420;28;20177;-67
2021/01/08 08:11:36;;;;;;;8.87;5.70;;;;;;;0.95;84.61;96479.09;5092328;28;20172;-66
2021/01/08 08:14:03;;;;;;;8.80;5.00;;;;;;;0.93;85.00;96488.00;5091213;28;20200;-66
2021/01/08 08:16:36;;;;;;;6.83;4.63;;;;;;;0.78;85.57;96490.53;5091615;28;20164;-66
2021/01/08 08:19:03;;;;;;;6.97;4.57;;;;;;;0.80;85.71;96496.31;5091655;28;20235;-67
2021/01/08 08:21:31;;;;;;;6.27;4.70;;;;;;;0.92;85.26;96496.72;5092464;28;20177;-67
2021/01/08 08:23:59;;;;;;;5.00;4.47;;;;;;;0.81;86.34;96501.31;5092971;28;20230;-67
2021/01/08 08:26:26;;;;;;;5.90;4.20;;;;;;;0.92;85.57;96492.34;5093300;28;20196;-67
2021/01/08 08:29:04;;;;;;;5.23;4.40;;;;;;;0.99;85.33;96498.44;5092077;28;20206;-67
2021/01/08 08:31:34;;;;;;;7.00;4.47;;;;;;;1.17;84.94;96496.31;5091125;28;20168;-72
2021/01/08 08:34:01;;;;;;;5.60;4.63;;;;;;;1.13;84.30;96496.84;5092656;28;20216;-68
2021/01/08 08:36:28;;;;;;;4.87;4.27;;;;;;;1.17;84.88;96508.44;5093268;28;20165;-67
2021/01/08 08:39:12;;;;;;;5.23;4.67;;;;;;;1.12;85.46;96506.38;5091692;28;20506;-67
2021/01/08 08:41:39;;;;;;;5.13;4.10;;;;;;;1.13;85.36;96515.72;5090799;28;20176;-65
2021/01/08 08:44:07;;;;;;;6.50;4.70;;;;;;;1.14;85.58;96514.75;5092676;28;20201;-66
2021/01/08 08:46:41;;;;;;;5.80;4.40;;;;;;;1.27;85.03;96509.00;5090829;28;20212;-68
2021/01/08 08:49:09;;;;;;;7.30;4.70;;;;;;;1.41;84.40;96521.13;5090970;28;20225;-66
2021/01/08 08:51:35;;;;;;;5.73;4.30;;;;;;;1.35;83.67;96526.16;5091734;28;20171;-66
2021/01/08 08:54:00;;;;;;;6.70;4.73;;;;;;;1.23;84.86;96524.00;5092336;28;20196;-66
2021/01/08 08:56:26;;;;;;;4.60;4.10;;;;;;;1.19;85.27;96527.13;5092766;28;20202;-66
2021/01/08 08:58:51;;;;;;;5.50;4.40;;;;;;;1.21;84.90;96525.19;5091415;28;21008;-66
2021/01/08 09:01:17;;;;;;;5.57;4.40;;;;;;;1.27;89.00;96529.66;5092067;28;20177;-65
2021/01/08 09:03:43;;;;;;;5.43;4.50;;;;;;;1.38;85.66;96526.66;5108384;27;20231;-66
2021/01/08 09:06:10;;;;;;;5.13;4.57;;;;;;;1.39;84.91;96530.84;5112747;28;20287;-65
2021/01/08 09:08:38;;;;;;;5.57;4.10;;;;;;;1.26;84.64;96530.63;5112012;28;20172;-65
2021/01/08 09:11:25;;;;;;;4.77;4.30;;;;;;;1.29;85.33;96534.63;5112701;28;20176;-65
2021/01/08 09:13:53;;;;;;;6.57;4.60;;;;;;;1.24;83.80;96532.56;5096139;28;20844;-65
2021/01/08 09:16:43;;;;;;;5.17;4.17;;;;;;;1.18;85.37;96525.50;5112587;28;20222;-65
2021/01/08 09:19:16;;;;;;;5.33;4.10;;;;;;;1.27;85.56;96534.00;5109310;28;20637;-65
2021/01/08 09:21:50;;;;;;;4.93;4.10;;;;;;;1.42;84.99;96534.81;5111939;28;20215;-65
2021/01/08 09:24:31;;;;;;;7.13;4.37;;;;;;;1.31;83.79;96530.91;5112741;28;20222;-66
2021/01/08 09:27:05;;;;;;;5.50;4.50;;;;;;;1.20;85.84;96531.31;5112054;28;20180;-65
2021/01/08 09:29:49;;;;;;;5.87;4.00;;;;;;;1.37;85.37;96534.56;5112382;28;20176;-64
2021/01/08 09:32:32;;;;;;;5.60;4.70;;;;;;;1.33;84.76;96539.28;5109064;28;20666;-65
2021/01/08 09:35:07;;;;;;;4.57;3.90;;;;;;;1.50;86.63;96535.56;5112318;28;20192;-65
2021/01/08 09:37:51;;;;;;;5.07;3.90;;;;;;;1.58;84.33;96539.84;5111394;28;20167;-63
2021/01/08 09:40:18;;;;;;;4.60;4.17;;;;;;;1.60;84.72;96538.69;5111451;28;20614;-64
2021/01/08 09:42:47;;;;;;;4.73;4.23;;;;;;;1.51;85.55;96534.56;5111601;28;20582;-66
2021/01/08 09:45:26;;;;;;;6.17;4.20;;;;;;;1.52;84.27;96543.13;5112203;28;20206;-64
2021/01/08 09:47:53;;;;;;;4.60;4.20;;;;;;;1.49;84.66;96551.22;5110683;28;20174;-65
2021/01/08 09:50:30;;;;;;;4.17;3.77;;;;;;;1.61;84.55;96536.91;5110287;28;20571;-65
2021/01/08 09:52:58;;;;;;;5.07;3.77;;;;;;;1.64;84.36;96546.88;5109948;28;20182;-64
2021/01/08 09:55:31;;;;;;;4.17;3.73;;;;;;;1.72;84.01;96541.66;5112502;28;20558;-65
2021/01/08 09:58:01;;;;;;;4.43;3.50;;;;;;;1.59;84.18;96544.84;5110863;28;20654;-65
2021/01/08 10:00:29;;;;;;;3.93;3.53;;;;;;;1.58;83.77;96543.22;5112197;28;20188;-65
2021/01/08 10:02:55;;;;;;;5.57;4.10;;;;;;;1.71;83.97;96540.03;5117539;27;20353;-65
2021/01/08 10:05:20;;;;;;;4.50;3.73;;;;;;;1.93;83.42;96553.84;5112333;27;20242;-65
2021/01/08 10:07:47;;;;;;;3.70;3.13;;;;;;;1.97;83.68;96545.56;5110021;27;20200;-65
2021/01/08 10:10:15;;;;;;;4.10;3.63;;;;;;;2.00;82.11;96545.22;5115798;27;20173;-65
2021/01/08 10:12:51;;;;;;;4.13;3.53;;;;;;;2.03;81.98;96544.03;5123987;27;20196;-65
2021/01/08 10:15:18;;;;;;;3.50;3.10;;;;;;;1.97;81.22;96545.56;5124846;27;20194;-65
2021/01/08 10:17:52;;;;;;;3.80;3.30;;;;;;;2.07;80.60;96542.69;5125717;27;20216;-66
2021/01/08 10:20:23;;;;;;;2.90;2.70;;;;;;;1.92;81.44;96553.06;5097566;28;20167;-65
2021/01/08 10:22:50;;;;;;;2.93;2.70;;;;;;;1.99;80.95;96543.63;5119980;28;20254;-65
2021/01/08 10:25:26;;;;;;;3.07;2.73;;;;;;;2.05;79.98;96542.09;5120318;28;20715;-65
2021/01/08 10:27:53;;;;;;;2.93;2.73;;;;;;;1.99;80.12;96537.63;5127223;28;20908;-65
2021/01/08 10:30:18;;;;;;;3.27;2.20;;;;;;;1.94;79.26;96538.19;5123011;28;20171;-66
2021/01/08 10:32:50;;;;;;;2.93;2.70;;;;;;;1.85;77.99;96546.19;5127456;28;20178;-66
2021/01/08 10:35:18;;;;;;;3.30;2.70;;;;;;;1.77;78.21;96551.44;5126416;28;20203;-65
2021/01/08 10:37:46;;;;;;;3.10;2.80;;;;;;;1.69;78.84;96542.00;5100293;28;20174;-65
2021/01/08 10:40:12;;;;;;;3.67;2.90;;;;;;;1.56;79.55;96539.22;5114947;28;20542;-67
2021/01/08 10:42:38;;;;;;;2.57;2.37;;;;;;;1.78;79.36;96543.53;5098078;28;20266;-66
2021/01/08 10:45:04;;;;;;;2.93;2.67;;;;;;;1.80;78.58;96544.13;5122610;28;20207;-66
2021/01/08 10:47:32;;;;;;;3.90;2.70;;;;;;;1.73;79.33;96539.88;5126441;28;20167;-66
2021/01/08 10:50:00;;;;;;;2.90;2.47;;;;;;;1.84;77.95;96535.03;5121198;28;20178;-66
2021/01/08 10:52:26;;;;;;;2.67;2.47;;;;;;;1.87;76.69;96532.13;5120004;28;20248;-65
2021/01/08 10:54:52;;;;;;;3.80;2.77;;;;;;;1.77;79.20;96543.69;5122256;28;20280;-66
2021/01/08 10:57:18;;;;;;;3.17;2.67;;;;;;;1.92;77.72;96532.38;5122431;28;20636;-65
2021/01/08 10:59:43;;;;;;;3.30;2.63;;;;;;;2.05;77.79;96535.16;5118286;28;20225;-65
2021/01/08 11:02:11;;;;;;;2.90;2.67;;;;;;;1.93;76.43;96526.25;5116334;27;20220;-67
2021/01/08 11:04:36;;;;;;;3.20;2.90;;;;;;;1.97;76.38;96524.09;5104472;28;20205;-65
2021/01/08 11:07:02;;;;;;;3.10;2.80;;;;;;;2.05;75.97;96531.75;5104466;28;20634;-66
2021/01/08 11:09:27;;;;;;;3.40;3.00;;;;;;;2.30;75.55;96527.06;5104545;28;20537;-65
2021/01/08 11:11:53;;;;;;;3.13;2.80;;;;;;;2.13;74.05;96517.91;5108274;28;20183;-66
2021/01/08 11:14:19;;;;;;;4.77;2.87;;;;;;;2.09;74.72;96531.22;5098753;28;20242;-66
2021/01/08 11:16:44;;;;;;;3.13;2.83;;;;;;;2.30;75.34;96522.72;5097442;28;20172;-67
2021/01/08 11:19:10;;;;;;;3.23;2.93;;;;;;;2.28;73.74;96524.69;5100206;28;20587;-65
2021/01/08 11:21:35;;;;;;;3.10;2.80;;;;;;;2.27;74.75;96519.69;5097251;28;20638;-66
2021/01/08 11:24:01;;;;;;;4.97;3.70;;;;;;;2.40;74.28;96525.00;5102807;28;20291;-65
2021/01/08 11:26:28;;;;;;;3.30;3.00;;;;;;;2.35;75.08;96519.56;5108336;28;20195;-66
2021/01/08 11:28:57;;;;;;;3.73;2.93;;;;;;;2.50;76.04;96522.94;5101765;28;20773;-66
2021/01/08 11:31:41;;;;;;;3.77;2.93;;;;;;;2.43;72.57;96522.06;5100919;28;20653;-66
2021/01/08 11:34:09;;;;;;;4.27;3.33;;;;;;;2.38;74.22;96516.63;5092181;28;21105;-66
2021/01/08 11:36:37;;;;;;;3.30;3.00;;;;;;;2.23;73.50;96515.88;5076176;28;20191;-66
2021/01/08 11:39:03;;;;;;;3.73;2.77;;;;;;;2.19;73.67;96512.84;5105775;28;20208;-67
2021/01/08 11:41:29;;;;;;;3.50;2.97;;;;;;;2.21;74.63;96510.06;5094792;28;20184;-68
2021/01/08 11:43:55;;;;;;;3.73;2.70;;;;;;;2.34;73.32;96512.81;5107977;28;20781;-67
2021/01/08 11:46:22;;;;;;;3.53;3.07;;;;;;;2.46;73.11;96516.50;5104650;28;20189;-65
2021/01/08 11:48:54;;;;;;;3.73;2.90;;;;;;;2.36;73.03;96516.81;5106951;28;20168;-65